sensor_id;sensor_type;location;lat;lon;timestamp;pressure;altitude;pressure_sealevel;temperature;humidity
68807;BME280;55800;54.272;18.558;2023-07-24T00:01:06;100037.47;;;17.34;61.34
68807;BME280;55800;54.272;18.558;2023-07-24T00:03:35;100035.00;;;17.31;60.95
68807;BME280;55800;54.272;18.558;2023-07-24T00:06:04;100026.16;;;17.29;60.77
68807;BME280;55800;54.272;18.558;2023-07-24T00:08:33;100018.19;;;17.27;60.65
68807;BME280;55800;54.272;18.558;2023-07-24T00:11:02;100016.47;;;17.26;60.50
68807;BME280;55800;54.272;18.558;2023-07-24T00:13:33;100012.16;;;17.24;60.51
68807;BME280;55800;54.272;18.558;2023-07-24T00:16:07;100004.81;;;17.26;60.55
68807;BME280;55800;54.272;18.558;2023-07-24T00:18:36;100010.44;;;17.23;60.53
68807;BME280;55800;54.272;18.558;2023-07-24T00:21:05;100013.13;;;17.23;60.61
68807;BME280;55800;54.272;18.558;2023-07-24T00:23:34;100010.56;;;17.21;60.79
68807;BME280;55800;54.272;18.558;2023-07-24T00:26:03;100012.41;;;17.21;60.92
68807;BME280;55800;54.272;18.558;2023-07-24T00:28:32;100015.22;;;17.19;60.62
68807;BME280;55800;54.272;18.558;2023-07-24T00:31:01;100012.66;;;17.17;60.20
68807;BME280;55800;54.272;18.558;2023-07-24T00:33:32;99996.66;;;17.14;60.31
68807;BME280;55800;54.272;18.558;2023-07-24T00:36:01;100003.03;;;17.13;60.36
68807;BME280;55800;54.272;18.558;2023-07-24T00:38:30;100000.47;;;17.12;60.29
68807;BME280;55800;54.272;18.558;2023-07-24T00:40:59;99999.72;;;17.10;60.24
68807;BME280;55800;54.272;18.558;2023-07-24T00:43:28;100008.94;;;17.07;60.34
68807;BME280;55800;54.272;18.558;2023-07-24T00:45:57;100010.88;;;17.05;60.69
68807;BME280;55800;54.272;18.558;2023-07-24T00:48:26;100008.44;;;17.02;60.15
68807;BME280;55800;54.272;18.558;2023-07-24T00:50:57;100011.38;;;16.99;60.36
68807;BME280;55800;54.272;18.558;2023-07-24T00:53:26;100009.75;;;16.97;60.39
68807;BME280;55800;54.272;18.558;2023-07-24T00:55:55;100001.06;;;16.93;60.23
68807;BME280;55800;54.272;18.558;2023-07-24T00:58:25;100009.38;;;16.90;60.20
68807;BME280;55800;54.272;18.558;2023-07-24T01:00:57;99998.84;;;16.87;60.22
68807;BME280;55800;54.272;18.558;2023-07-24T01:03:29;99997.22;;;16.85;60.62
68807;BME280;55800;54.272;18.558;2023-07-24T01:06:02;99996.59;;;16.81;60.34
68807;BME280;55800;54.272;18.558;2023-07-24T01:08:31;99999.66;;;16.77;60.33
68807;BME280;55800;54.272;18.558;2023-07-24T01:11:02;99992.66;;;16.74;59.85
68807;BME280;55800;54.272;18.558;2023-07-24T01:13:32;99987.47;;;16.71;59.91
68807;BME280;55800;54.272;18.558;2023-07-24T01:16:07;99984.03;;;16.69;60.09
68807;BME280;55800;54.272;18.558;2023-07-24T01:18:38;99978.91;;;16.66;60.17
68807;BME280;55800;54.272;18.558;2023-07-24T01:21:09;99975.44;;;16.64;60.14
68807;BME280;55800;54.272;18.558;2023-07-24T01:23:45;99981.06;;;16.61;60.07
68807;BME280;55800;54.272;18.558;2023-07-24T01:26:23;99981.31;;;16.58;60.07
68807;BME280;55800;54.272;18.558;2023-07-24T01:28:52;99976.16;;;16.55;60.16
68807;BME280;55800;54.272;18.558;2023-07-24T01:31:21;99972.72;;;16.53;60.00
68807;BME280;55800;54.272;18.558;2023-07-24T01:33:51;99981.97;;;16.49;60.02
68807;BME280;55800;54.272;18.558;2023-07-24T01:36:20;99976.81;;;16.46;60.11
68807;BME280;55800;54.272;18.558;2023-07-24T01:38:49;99978.66;;;16.46;59.99
68807;BME280;55800;54.272;18.558;2023-07-24T01:41:19;99965.41;;;16.42;59.97
68807;BME280;55800;54.272;18.558;2023-07-24T01:43:50;99962.81;;;16.41;60.15
68807;BME280;55800;54.272;18.558;2023-07-24T01:46:19;99960.22;;;16.39;60.20
68807;BME280;55800;54.272;18.558;2023-07-24T01:48:48;99951.50;;;16.36;60.14
68807;BME280;55800;54.272;18.558;2023-07-24T01:51:17;99957.13;;;16.33;60.06
68807;BME280;55800;54.272;18.558;2023-07-24T01:53:46;99945.59;;;16.31;60.03
68807;BME280;55800;54.272;18.558;2023-07-24T01:56:15;99946.81;;;16.27;60.17
68807;BME280;55800;54.272;18.558;2023-07-24T01:58:44;99944.38;;;16.24;60.02
68807;BME280;55800;54.272;18.558;2023-07-24T02:01:15;99945.44;;;16.21;59.89
68807;BME280;55800;54.272;18.558;2023-07-24T02:03:45;99948.50;;;16.17;59.94
68807;BME280;55800;54.272;18.558;2023-07-24T02:06:14;99948.72;;;16.14;59.73
68807;BME280;55800;54.272;18.558;2023-07-24T02:08:44;99934.59;;;16.10;59.76
68807;BME280;55800;54.272;18.558;2023-07-24T02:11:16;99937.63;;;16.06;59.87
68807;BME280;55800;54.272;18.558;2023-07-24T02:13:46;99946.81;;;16.03;59.69
68807;BME280;55800;54.272;18.558;2023-07-24T02:16:16;99953.53;;;15.98;60.05
68807;BME280;55800;54.272;18.558;2023-07-24T02:18:46;99952.03;;;15.94;59.75
68807;BME280;55800;54.272;18.558;2023-07-24T02:21:15;99945.16;;;15.90;59.77
68807;BME280;55800;54.272;18.558;2023-07-24T02:23:44;99950.78;;;15.87;59.79
68807;BME280;55800;54.272;18.558;2023-07-24T02:26:13;99939.38;;;15.83;59.80
68807;BME280;55800;54.272;18.558;2023-07-24T02:28:42;99948.66;;;15.79;59.76
68807;BME280;55800;54.272;18.558;2023-07-24T03:07:16;99941.19;;;15.34;60.72
68807;BME280;55800;54.272;18.558;2023-07-24T03:09:47;99941.19;;;15.34;60.92
68807;BME280;55800;54.272;18.558;2023-07-24T03:12:16;99942.19;;;15.33;60.47
68807;BME280;55800;54.272;18.558;2023-07-24T03:14:46;99941.31;;;15.32;60.42
68807;BME280;55800;54.272;18.558;2023-07-24T03:17:14;99947.66;;;15.31;60.41
68807;BME280;55800;54.272;18.558;2023-07-24T03:19:43;99943.00;;;15.33;60.50
68807;BME280;55800;54.272;18.558;2023-07-24T03:22:12;99936.66;;;15.34;60.26
68807;BME280;55800;54.272;18.558;2023-07-24T03:24:42;99941.84;;;15.37;60.34
68807;BME280;55800;54.272;18.558;2023-07-24T03:27:11;99936.34;;;15.39;60.22
68807;BME280;55800;54.272;18.558;2023-07-24T03:29:41;99933.41;;;15.42;60.22
68807;BME280;55800;54.272;18.558;2023-07-24T03:32:10;99927.09;;;15.43;60.40
68807;BME280;55800;54.272;18.558;2023-07-24T03:34:39;99922.34;;;15.46;60.22
68807;BME280;55800;54.272;18.558;2023-07-24T03:37:08;99929.47;;;15.47;60.36
68807;BME280;55800;54.272;18.558;2023-07-24T03:39:37;99928.25;;;15.51;60.35
68807;BME280;55800;54.272;18.558;2023-07-24T03:42:09;99934.41;;;15.53;60.30
68807;BME280;55800;54.272;18.558;2023-07-24T03:44:40;99931.50;;;15.56;60.30
68807;BME280;55800;54.272;18.558;2023-07-24T03:47:09;99930.38;;;15.59;60.30
68807;BME280;55800;54.272;18.558;2023-07-24T03:49:38;99928.44;;;15.61;60.30
68807;BME280;55800;54.272;18.558;2023-07-24T03:52:07;99934.69;;;15.61;60.37
68807;BME280;55800;54.272;18.558;2023-07-24T03:54:37;99927.34;;;15.63;60.21
68807;BME280;55800;54.272;18.558;2023-07-24T03:57:07;99936.94;;;15.68;60.31
68807;BME280;55800;54.272;18.558;2023-07-24T03:59:36;99934.97;;;15.70;60.21
68807;BME280;55800;54.272;18.558;2023-07-24T04:02:05;99933.03;;;15.72;60.16
68807;BME280;55800;54.272;18.558;2023-07-24T04:04:37;99933.78;;;15.74;60.10
68807;BME280;55800;54.272;18.558;2023-07-24T04:07:06;99936.25;;;15.77;60.21
68807;BME280;55800;54.272;18.558;2023-07-24T04:09:35;99939.69;;;15.79;60.32
68807;BME280;55800;54.272;18.558;2023-07-24T04:12:04;99932.38;;;15.81;60.30
68807;BME280;55800;54.272;18.558;2023-07-24T04:14:35;99925.75;;;15.85;60.45
68807;BME280;55800;54.272;18.558;2023-07-24T04:17:05;99925.56;;;15.88;60.75
68807;BME280;55800;54.272;18.558;2023-07-24T04:19:35;99918.94;;;15.92;60.86
68807;BME280;55800;54.272;18.558;2023-07-24T04:22:04;99935.41;;;16.00;61.11
68807;BME280;55800;54.272;18.558;2023-07-24T04:24:33;99925.44;;;16.13;60.72
68807;BME280;55800;54.272;18.558;2023-07-24T04:27:02;99928.91;;;16.26;61.16
68807;BME280;55800;54.272;18.558;2023-07-24T04:29:31;99936.34;;;16.46;60.90
68807;BME280;55800;54.272;18.558;2023-07-24T04:32:02;99929.78;;;16.61;60.75
68807;BME280;55800;54.272;18.558;2023-07-24T04:34:31;99935.22;;;16.72;61.27
68807;BME280;55800;54.272;18.558;2023-07-24T04:37:01;99929.13;;;16.81;60.82
68807;BME280;55800;54.272;18.558;2023-07-24T04:39:30;99929.84;;;16.94;60.84
68807;BME280;55800;54.272;18.558;2023-07-24T04:41:59;99923.72;;;17.03;60.75
68807;BME280;55800;54.272;18.558;2023-07-24T04:44:28;99926.44;;;17.14;60.88
68807;BME280;55800;54.272;18.558;2023-07-24T04:46:57;99913.69;;;17.28;61.05
68807;BME280;55800;54.272;18.558;2023-07-24T04:49:29;99916.38;;;17.39;61.41
68807;BME280;55800;54.272;18.558;2023-07-24T04:52:00;99913.56;;;17.51;61.50
68807;BME280;55800;54.272;18.558;2023-07-24T04:54:29;99916.13;;;17.64;61.63
68807;BME280;55800;54.272;18.558;2023-07-24T04:56:58;99914.97;;;17.77;61.68
68807;BME280;55800;54.272;18.558;2023-07-24T04:59:27;99921.97;;;17.91;62.00
68807;BME280;55800;54.272;18.558;2023-07-24T05:01:56;99928.19;;;18.03;61.83
68807;BME280;55800;54.272;18.558;2023-07-24T05:04:25;99930.75;;;18.15;62.61
68807;BME280;55800;54.272;18.558;2023-07-24T05:06:56;99939.66;;;18.27;63.85
68807;BME280;55800;54.272;18.558;2023-07-24T05:09:25;99933.34;;;18.37;63.68
68807;BME280;55800;54.272;18.558;2023-07-24T05:11:54;99930.63;;;18.48;64.46
68807;BME280;55800;54.272;18.558;2023-07-24T05:14:23;99927.97;;;18.58;66.09
68807;BME280;55800;54.272;18.558;2023-07-24T05:16:52;99928.31;;;18.64;64.60
68807;BME280;55800;54.272;18.558;2023-07-24T05:19:21;99916.69;;;18.74;63.79
68807;BME280;55800;54.272;18.558;2023-07-24T05:21:50;99921.03;;;18.86;62.91
68807;BME280;55800;54.272;18.558;2023-07-24T05:24:21;99920.09;;;18.96;62.17
68807;BME280;55800;54.272;18.558;2023-07-24T05:26:50;99925.84;;;19.03;62.19
68807;BME280;55800;54.272;18.558;2023-07-24T05:29:19;99925.31;;;19.09;62.07
68807;BME280;55800;54.272;18.558;2023-07-24T05:31:49;99928.47;;;19.14;62.16
68807;BME280;55800;54.272;18.558;2023-07-24T05:34:18;99936.34;;;19.17;65.82
68807;BME280;55800;54.272;18.558;2023-07-24T05:36:47;99933.22;;;19.21;63.67
68807;BME280;55800;54.272;18.558;2023-07-24T05:39:16;99935.25;;;19.29;63.44
68807;BME280;55800;54.272;18.558;2023-07-24T05:41:48;99935.75;;;19.34;64.38
68807;BME280;55800;54.272;18.558;2023-07-24T05:44:17;99936.47;;;19.36;64.93
68807;BME280;55800;54.272;18.558;2023-07-24T05:46:46;99936.66;;;19.44;63.18
68807;BME280;55800;54.272;18.558;2023-07-24T05:49:15;99939.78;;;19.49;65.00
68807;BME280;55800;54.272;18.558;2023-07-24T05:51:44;99935.38;;;19.48;64.79
68807;BME280;55800;54.272;18.558;2023-07-24T05:54:13;99940.41;;;19.53;65.54
68807;BME280;55800;54.272;18.558;2023-07-24T05:56:42;99931.13;;;19.55;65.44
68807;BME280;55800;54.272;18.558;2023-07-24T05:59:12;99934.88;;;19.64;64.63
68807;BME280;55800;54.272;18.558;2023-07-24T06:01:41;99928.88;;;19.70;63.94
68807;BME280;55800;54.272;18.558;2023-07-24T06:04:11;99927.75;;;19.72;64.94
68807;BME280;55800;54.272;18.558;2023-07-24T06:06:40;99920.75;;;19.79;64.67
68807;BME280;55800;54.272;18.558;2023-07-24T06:09:09;99931.03;;;19.85;63.55
68807;BME280;55800;54.272;18.558;2023-07-24T06:11:38;99917.47;;;19.85;63.86
68807;BME280;55800;54.272;18.558;2023-07-24T06:14:07;99923.06;;;19.84;64.97
68807;BME280;55800;54.272;18.558;2023-07-24T06:16:37;99926.53;;;19.95;63.80
68807;BME280;55800;54.272;18.558;2023-07-24T06:19:07;99930.66;;;19.99;64.04
68807;BME280;55800;54.272;18.558;2023-07-24T06:21:36;99922.69;;;20.07;63.94
68807;BME280;55800;54.272;18.558;2023-07-24T06:24:05;99920.41;;;20.12;63.72
68807;BME280;55800;54.272;18.558;2023-07-24T06:26:39;99919.56;;;20.21;63.35
68807;BME280;55800;54.272;18.558;2023-07-24T06:29:09;99915.16;;;20.30;63.88
68807;BME280;55800;54.272;18.558;2023-07-24T06:31:39;99916.72;;;20.33;64.26
68807;BME280;55800;54.272;18.558;2023-07-24T06:34:08;99920.59;;;20.40;64.05
68807;BME280;55800;54.272;18.558;2023-07-24T06:36:37;99922.16;;;20.52;63.56
68807;BME280;55800;54.272;18.558;2023-07-24T06:39:06;99926.00;;;20.59;63.91
68807;BME280;55800;54.272;18.558;2023-07-24T06:41:35;99920.72;;;20.67;63.81
68807;BME280;55800;54.272;18.558;2023-07-24T06:44:05;99919.84;;;20.76;63.83
68807;BME280;55800;54.272;18.558;2023-07-24T06:46:34;99915.25;;;20.86;63.70
68807;BME280;55800;54.272;18.558;2023-07-24T06:49:04;99916.06;;;20.96;63.64
68807;BME280;55800;54.272;18.558;2023-07-24T06:51:33;99918.81;;;21.06;63.50
68807;BME280;55800;54.272;18.558;2023-07-24T06:54:02;99920.50;;;21.16;63.60
68807;BME280;55800;54.272;18.558;2023-07-24T06:56:31;99922.63;;;21.22;63.18
68807;BME280;55800;54.272;18.558;2023-07-24T06:59:01;99923.13;;;21.35;63.03
68807;BME280;55800;54.272;18.558;2023-07-24T07:01:30;99926.22;;;21.50;63.35
68807;BME280;55800;54.272;18.558;2023-07-24T07:03:59;99923.84;;;21.64;62.93
68807;BME280;55800;54.272;18.558;2023-07-24T07:06:29;99907.34;;;21.75;62.07
68807;BME280;55800;54.272;18.558;2023-07-24T07:08:59;99916.31;;;21.86;60.93
68807;BME280;55800;54.272;18.558;2023-07-24T07:11:28;99912.53;;;21.96;61.80
68807;BME280;55800;54.272;18.558;2023-07-24T07:13:57;99906.72;;;22.09;60.99
68807;BME280;55800;54.272;18.558;2023-07-24T07:16:26;99902.19;;;22.17;60.17
68807;BME280;55800;54.272;18.558;2023-07-24T07:18:56;99905.69;;;22.27;61.32
68807;BME280;55800;54.272;18.558;2023-07-24T07:21:25;99901.88;;;22.38;60.50
68807;BME280;55800;54.272;18.558;2023-07-24T07:23:55;99906.94;;;22.50;60.80
68807;BME280;55800;54.272;18.558;2023-07-24T07:26:24;99905.16;;;22.59;59.82
68807;BME280;55800;54.272;18.558;2023-07-24T07:28:55;99903.84;;;22.63;59.78
68807;BME280;55800;54.272;18.558;2023-07-24T07:31:24;99902.03;;;22.72;59.52
68807;BME280;55800;54.272;18.558;2023-07-24T07:33:53;99903.28;;;22.77;58.85
68807;BME280;55800;54.272;18.558;2023-07-24T07:36:22;99906.38;;;22.82;57.86
68807;BME280;55800;54.272;18.558;2023-07-24T07:38:51;99895.63;;;22.81;56.43
68807;BME280;55800;54.272;18.558;2023-07-24T07:41:21;99898.75;;;22.86;58.07
68807;BME280;55800;54.272;18.558;2023-07-24T07:43:52;99899.31;;;22.97;58.03
68807;BME280;55800;54.272;18.558;2023-07-24T07:46:21;99888.16;;;23.08;58.22
68807;BME280;55800;54.272;18.558;2023-07-24T07:48:50;99894.00;;;23.13;57.80
68807;BME280;55800;54.272;18.558;2023-07-24T07:51:18;99893.00;;;23.22;57.92
68807;BME280;55800;54.272;18.558;2023-07-24T07:53:47;99893.78;;;23.33;58.03
68807;BME280;55800;54.272;18.558;2023-07-24T07:56:16;99890.41;;;23.39;58.35
68807;BME280;55800;54.272;18.558;2023-07-24T07:58:48;99890.06;;;23.42;58.03
68807;BME280;55800;54.272;18.558;2023-07-24T08:01:17;99886.16;;;23.44;57.23
68807;BME280;55800;54.272;18.558;2023-07-24T08:03:46;99881.22;;;23.48;56.48
68807;BME280;55800;54.272;18.558;2023-07-24T08:06:15;99874.94;;;23.47;55.47
68807;BME280;55800;54.272;18.558;2023-07-24T08:08:45;99887.88;;;23.45;55.97
68807;BME280;55800;54.272;18.558;2023-07-24T08:11:13;99871.31;;;23.39;54.83
68807;BME280;55800;54.272;18.558;2023-07-24T08:13:43;99869.25;;;23.41;55.62
68807;BME280;55800;54.272;18.558;2023-07-24T08:16:16;99873.00;;;23.40;55.16
68807;BME280;55800;54.272;18.558;2023-07-24T08:18:47;99871.13;;;23.40;55.41
68807;BME280;55800;54.272;18.558;2023-07-24T08:21:16;99874.06;;;23.47;55.61
68807;BME280;55800;54.272;18.558;2023-07-24T08:23:46;99872.72;;;23.51;56.10
68807;BME280;55800;54.272;18.558;2023-07-24T08:26:14;99873.22;;;23.54;55.77
68807;BME280;55800;54.272;18.558;2023-07-24T08:28:44;99866.78;;;23.63;56.27
68807;BME280;55800;54.272;18.558;2023-07-24T08:31:13;99869.03;;;23.68;56.24
68807;BME280;55800;54.272;18.558;2023-07-24T08:33:43;99869.88;;;23.68;55.36
68807;BME280;55800;54.272;18.558;2023-07-24T08:36:12;99866.66;;;23.73;55.95
68807;BME280;55800;54.272;18.558;2023-07-24T08:38:41;99859.50;;;23.80;56.01
68807;BME280;55800;54.272;18.558;2023-07-24T08:41:11;99850.13;;;23.90;56.03
68807;BME280;55800;54.272;18.558;2023-07-24T08:43:41;99848.63;;;23.96;55.21
68807;BME280;55800;54.272;18.558;2023-07-24T08:46:10;99836.72;;;24.05;56.31
68807;BME280;55800;54.272;18.558;2023-07-24T08:48:40;99845.94;;;24.12;55.86
68807;BME280;55800;54.272;18.558;2023-07-24T08:51:12;99841.66;;;24.18;54.79
68807;BME280;55800;54.272;18.558;2023-07-24T08:53:42;99830.41;;;24.21;54.08
68807;BME280;55800;54.272;18.558;2023-07-24T08:56:12;99843.06;;;24.22;53.96
68807;BME280;55800;54.272;18.558;2023-07-24T08:58:42;99832.47;;;24.27;54.96
68807;BME280;55800;54.272;18.558;2023-07-24T09:01:11;99833.31;;;24.35;55.50
68807;BME280;55800;54.272;18.558;2023-07-24T09:03:40;99834.88;;;24.38;55.03
68807;BME280;55800;54.272;18.558;2023-07-24T09:06:11;99828.88;;;24.42;54.91
68807;BME280;55800;54.272;18.558;2023-07-24T09:08:41;99820.00;;;24.40;55.01
68807;BME280;55800;54.272;18.558;2023-07-24T09:11:10;99823.06;;;24.45;55.71
68807;BME280;55800;54.272;18.558;2023-07-24T09:13:42;99814.19;;;24.43;54.72
68807;BME280;55800;54.272;18.558;2023-07-24T09:16:20;99818.66;;;24.44;54.53
68807;BME280;55800;54.272;18.558;2023-07-24T09:18:49;99815.41;;;24.41;54.84
68807;BME280;55800;54.272;18.558;2023-07-24T09:21:33;99811.13;;;24.38;54.68
68807;BME280;55800;54.272;18.558;2023-07-24T09:24:09;99807.19;;;24.33;54.23
68807;BME280;55800;54.272;18.558;2023-07-24T09:26:49;99806.00;;;24.35;54.28
68807;BME280;55800;54.272;18.558;2023-07-24T09:29:19;99806.00;;;24.35;53.87
68807;BME280;55800;54.272;18.558;2023-07-24T09:31:49;99797.13;;;24.33;54.50
68807;BME280;55800;54.272;18.558;2023-07-24T09:34:18;99801.91;;;24.31;54.10
68807;BME280;55800;54.272;18.558;2023-07-24T09:36:49;99793.38;;;24.34;54.70
68807;BME280;55800;54.272;18.558;2023-07-24T09:39:22;99794.06;;;24.36;54.12
68807;BME280;55800;54.272;18.558;2023-07-24T09:41:51;99788.41;;;24.38;53.82
68807;BME280;55800;54.272;18.558;2023-07-24T09:44:20;99785.16;;;24.42;54.13
68807;BME280;55800;54.272;18.558;2023-07-24T09:46:49;99780.38;;;24.44;54.89
68807;BME280;55800;54.272;18.558;2023-07-24T09:49:39;99779.50;;;24.52;54.00
68807;BME280;55800;54.272;18.558;2023-07-24T09:52:09;99780.19;;;24.54;54.23
68807;BME280;55800;54.272;18.558;2023-07-24T09:54:42;99774.91;;;24.52;54.57
68807;BME280;55800;54.272;18.558;2023-07-24T09:57:14;99782.06;;;24.61;53.83
68807;BME280;55800;54.272;18.558;2023-07-24T09:59:49;99764.97;;;24.67;53.33
68807;BME280;55800;54.272;18.558;2023-07-24T10:02:18;99754.91;;;24.68;52.63
68807;BME280;55800;54.272;18.558;2023-07-24T10:04:48;99754.72;;;24.69;53.36
68807;BME280;55800;54.272;18.558;2023-07-24T10:07:19;99749.72;;;24.73;53.39
68807;BME280;55800;54.272;18.558;2023-07-24T10:09:50;99738.50;;;24.76;52.93
68807;BME280;55800;54.272;18.558;2023-07-24T10:12:20;99756.75;;;24.84;52.76
68807;BME280;55800;54.272;18.558;2023-07-24T10:14:49;99747.34;;;24.86;52.00
68807;BME280;55800;54.272;18.558;2023-07-24T10:17:33;99744.75;;;24.93;53.80
68807;BME280;55800;54.272;18.558;2023-07-24T10:20:03;99736.03;;;24.97;52.68
68807;BME280;55800;54.272;18.558;2023-07-24T10:22:36;99732.38;;;25.05;52.53
68807;BME280;55800;54.272;18.558;2023-07-24T10:25:11;99729.78;;;25.11;52.90
68807;BME280;55800;54.272;18.558;2023-07-24T10:27:41;99730.78;;;25.18;53.01
68807;BME280;55800;54.272;18.558;2023-07-24T10:30:11;99721.00;;;25.24;53.12
68807;BME280;55800;54.272;18.558;2023-07-24T10:33:04;99704.72;;;25.30;52.52
68807;BME280;55800;54.272;18.558;2023-07-24T10:35:40;99711.19;;;25.37;52.83
68807;BME280;55800;54.272;18.558;2023-07-24T10:38:11;99710.31;;;25.45;52.36
68807;BME280;55800;54.272;18.558;2023-07-24T10:40:41;99708.94;;;25.49;52.24
68807;BME280;55800;54.272;18.558;2023-07-24T10:43:11;99704.44;;;25.56;52.22
68807;BME280;55800;54.272;18.558;2023-07-24T10:45:42;99709.16;;;25.62;51.93
68807;BME280;55800;54.272;18.558;2023-07-24T10:48:11;99692.72;;;25.70;52.57
68807;BME280;55800;54.272;18.558;2023-07-24T10:50:42;99688.84;;;25.79;53.04
68807;BME280;55800;54.272;18.558;2023-07-24T10:53:13;99695.09;;;25.88;51.92
68807;BME280;55800;54.272;18.558;2023-07-24T10:55:43;99697.97;;;25.94;51.18
68807;BME280;55800;54.272;18.558;2023-07-24T10:58:12;99697.88;;;26.02;52.16
68807;BME280;55800;54.272;18.558;2023-07-24T11:00:42;99685.19;;;26.09;52.10
68807;BME280;55800;54.272;18.558;2023-07-24T11:03:12;99694.84;;;26.20;52.33
68807;BME280;55800;54.272;18.558;2023-07-24T11:05:44;99695.72;;;26.35;51.88
68807;BME280;55800;54.272;18.558;2023-07-24T11:08:15;99686.50;;;26.51;52.28
68807;BME280;55800;54.272;18.558;2023-07-24T11:10:45;99682.22;;;26.63;51.17
68807;BME280;55800;54.272;18.558;2023-07-24T11:13:15;99680.56;;;26.76;51.02
68807;BME280;55800;54.272;18.558;2023-07-24T11:15:44;99687.63;;;26.85;52.50
68807;BME280;55800;54.272;18.558;2023-07-24T11:18:14;99688.56;;;26.92;49.79
68807;BME280;55800;54.272;18.558;2023-07-24T11:20:44;99682.78;;;27.02;50.99
68807;BME280;55800;54.272;18.558;2023-07-24T11:23:15;99687.13;;;27.11;50.18
68807;BME280;55800;54.272;18.558;2023-07-24T11:25:44;99688.72;;;27.20;49.61
68807;BME280;55800;54.272;18.558;2023-07-24T11:28:14;99684.19;;;27.13;47.85
68807;BME280;55800;54.272;18.558;2023-07-24T11:30:43;99680.41;;;27.14;49.06
68807;BME280;55800;54.272;18.558;2023-07-24T11:33:13;99684.84;;;27.15;47.99
68807;BME280;55800;54.272;18.558;2023-07-24T11:35:46;99696.41;;;27.10;48.18
68807;BME280;55800;54.272;18.558;2023-07-24T11:38:16;99689.28;;;27.16;49.03
68807;BME280;55800;54.272;18.558;2023-07-24T11:40:46;99693.66;;;27.10;48.59
68807;BME280;55800;54.272;18.558;2023-07-24T11:43:16;99690.94;;;27.10;48.47
68807;BME280;55800;54.272;18.558;2023-07-24T11:45:46;99698.88;;;27.05;48.18
68807;BME280;55800;54.272;18.558;2023-07-24T11:48:16;99696.78;;;27.07;48.39
68807;BME280;55800;54.272;18.558;2023-07-24T11:50:47;99691.00;;;27.02;48.65
68807;BME280;55800;54.272;18.558;2023-07-24T11:53:21;99690.56;;;26.98;48.60
68807;BME280;55800;54.272;18.558;2023-07-24T11:55:51;99696.81;;;26.92;49.13
68807;BME280;55800;54.272;18.558;2023-07-24T11:58:21;99684.22;;;26.98;49.54
68807;BME280;55800;54.272;18.558;2023-07-24T12:00:50;99680.25;;;27.00;48.67
68807;BME280;55800;54.272;18.558;2023-07-24T12:03:20;99679.22;;;27.01;48.66
68807;BME280;55800;54.272;18.558;2023-07-24T12:05:51;99674.75;;;27.00;48.12
68807;BME280;55800;54.272;18.558;2023-07-24T12:08:29;99674.47;;;26.95;48.38
68807;BME280;55800;54.272;18.558;2023-07-24T12:10:59;99671.16;;;27.00;48.91
68807;BME280;55800;54.272;18.558;2023-07-24T12:13:28;99663.00;;;27.06;48.05
68807;BME280;55800;54.272;18.558;2023-07-24T12:15:57;99658.38;;;27.07;47.57
68807;BME280;55800;54.272;18.558;2023-07-24T12:18:26;99655.63;;;27.07;47.66
68807;BME280;55800;54.272;18.558;2023-07-24T12:20:55;99664.31;;;27.11;47.69
68807;BME280;55800;54.272;18.558;2023-07-24T12:23:26;99664.41;;;27.17;47.61
68807;BME280;55800;54.272;18.558;2023-07-24T12:25:55;99664.88;;;27.21;46.97
68807;BME280;55800;54.272;18.558;2023-07-24T12:28:24;99659.09;;;27.16;45.88
68807;BME280;55800;54.272;18.558;2023-07-24T12:30:53;99656.84;;;27.04;45.76
68807;BME280;55800;54.272;18.558;2023-07-24T12:33:22;99662.22;;;27.13;46.19
68807;BME280;55800;54.272;18.558;2023-07-24T12:35:52;99643.94;;;27.20;46.29
68807;BME280;55800;54.272;18.558;2023-07-24T12:38:21;99661.28;;;27.20;46.47
68807;BME280;55800;54.272;18.558;2023-07-24T12:40:52;99667.50;;;27.29;46.59
68807;BME280;55800;54.272;18.558;2023-07-24T12:43:21;99661.06;;;27.36;46.22
68807;BME280;55800;54.272;18.558;2023-07-24T12:45:50;99657.16;;;27.45;46.49
68807;BME280;55800;54.272;18.558;2023-07-24T12:48:19;99657.22;;;27.52;46.75
68807;BME280;55800;54.272;18.558;2023-07-24T12:50:48;99655.56;;;27.57;46.16
68807;BME280;55800;54.272;18.558;2023-07-24T12:53:17;99637.94;;;27.66;47.24
68807;BME280;55800;54.272;18.558;2023-07-24T12:55:59;99635.44;;;27.71;46.29
68807;BME280;55800;54.272;18.558;2023-07-24T12:58:28;99625.56;;;27.77;46.62
68807;BME280;55800;54.272;18.558;2023-07-24T13:00:57;99629.66;;;27.88;46.27
68807;BME280;55800;54.272;18.558;2023-07-24T13:03:26;99621.03;;;27.91;45.59
68807;BME280;55800;54.272;18.558;2023-07-24T13:05:56;99612.31;;;27.87;44.78
68807;BME280;55800;54.272;18.558;2023-07-24T13:08:25;99621.16;;;27.82;44.94
68807;BME280;55800;54.272;18.558;2023-07-24T13:10:54;99623.56;;;27.92;45.72
68807;BME280;55800;54.272;18.558;2023-07-24T13:13:25;99622.72;;;27.92;45.16
68807;BME280;55800;54.272;18.558;2023-07-24T13:15:54;99605.72;;;28.03;46.19
68807;BME280;55800;54.272;18.558;2023-07-24T13:18:23;99589.63;;;28.00;44.84
68807;BME280;55800;54.272;18.558;2023-07-24T13:20:56;99590.16;;;28.10;46.45
68807;BME280;55800;54.272;18.558;2023-07-24T13:23:25;99587.88;;;28.20;46.45
68807;BME280;55800;54.272;18.558;2023-07-24T13:25:54;99573.06;;;28.21;45.26
68807;BME280;55800;54.272;18.558;2023-07-24T13:28:25;99579.47;;;28.28;45.96
68807;BME280;55800;54.272;18.558;2023-07-24T13:30:54;99577.59;;;28.35;45.33
68807;BME280;55800;54.272;18.558;2023-07-24T13:33:23;99569.41;;;28.41;47.20
68807;BME280;55800;54.272;18.558;2023-07-24T13:35:53;99564.97;;;28.47;45.45
68807;BME280;55800;54.272;18.558;2023-07-24T13:38:22;99563.94;;;28.48;45.04
68807;BME280;55800;54.272;18.558;2023-07-24T13:40:52;99573.88;;;28.49;45.31